Time;durP1;ratioP1;P1;durP2;ratioP2;P2;SDS_P1;SDS_P2;PMS_P1;PMS_P2;Temp;Humidity;BMP_temperature;BMP_pressure;BME280_temperature;BME280_humidity;BME280_pressure;Samples;Min_cycle;Max_cycle;Signal;HPM_P1;HPM_P2
2023/10/13 00:00:42;;;;;;;62.35;31.23;;;19.10;80.70;;;;;;5077962;28;20361;-69
2023/10/13 00:03:14;;;;;;;68.18;33.67;;;19.10;81.20;;;;;;5078618;28;20034;-69
2023/10/13 00:05:45;;;;;;;68.95;33.00;;;19.30;80.90;;;;;;5077968;28;20028;-69
2023/10/13 00:08:13;;;;;;;61.80;33.83;;;19.50;80.80;;;;;;5078409;28;20031;-69
2023/10/13 00:10:43;;;;;;;62.70;34.00;;;19.60;80.20;;;;;;5078045;28;20047;-68
2023/10/13 00:13:15;;;;;;;66.00;35.22;;;19.70;79.70;;;;;;5077674;28;20054;-68
2023/10/13 00:15:59;;;;;;;64.43;35.30;;;19.70;79.70;;;;;;5077795;28;20025;-69
2023/10/13 00:18:42;;;;;;;62.72;34.65;;;19.70;79.70;;;;;;5077749;28;20050;-69
2023/10/13 00:21:12;;;;;;;66.97;33.00;;;19.60;79.80;;;;;;5078040;28;20460;-69
2023/10/13 00:24:29;;;;;;;58.42;33.15;;;19.50;79.90;;;;;;5077664;28;20028;-68
2023/10/13 00:26:35;;;;;;;69.68;34.80;;;19.50;80.00;;;;;;5069285;28;20025;-68
2023/10/13 00:29:15;;;;;;;60.10;33.00;;;19.50;80.10;;;;;;5077402;28;20036;-68
2023/10/13 00:31:42;;;;;;;60.35;35.17;;;19.50;80.10;;;;;;5077376;28;20032;-69
2023/10/13 00:39:28;;;;;;;73.57;36.67;;;19.50;80.30;;;;;;5077781;28;20043;-69
2023/10/13 00:42:06;;;;;;;77.18;36.83;;;19.40;80.40;;;;;;5077214;28;20070;-68
2023/10/13 00:44:41;;;;;;;71.68;34.80;;;19.50;80.70;;;;;;5061193;28;20042;-68
2023/10/13 00:47:09;;;;;;;67.35;35.25;;;19.50;80.90;;;;;;5077180;28;20385;-69
2023/10/13 00:49:40;;;;;;;71.32;36.97;;;19.70;80.60;;;;;;5077366;28;20122;-69
2023/10/13 00:52:09;;;;;;;65.93;35.17;;;19.70;80.40;;;;;;5077342;28;20029;-68
2023/10/13 00:54:38;;;;;;;65.35;35.75;;;19.70;80.30;;;;;;5077002;28;20021;-69
2023/10/13 00:57:11;;;;;;;83.65;44.63;;;19.70;80.30;;;;;;5076929;28;20032;-68
2023/10/13 00:59:38;;;;;;;74.03;38.33;;;19.80;81.20;;;;;;5076938;28;20446;-68
2023/10/13 01:05:09;;;;;;;68.00;36.05;;;19.90;80.30;;;;;;5015435;28;20041;-68
2023/10/13 01:07:39;;;;;;;66.38;36.85;;;19.90;80.10;;;;;;4999183;28;20057;-68
2023/10/13 01:10:14;;;;;;;68.22;38.15;;;19.90;80.10;;;;;;5015593;28;20033;-68
2023/10/13 01:12:42;;;;;;;68.05;37.13;;;19.90;80.20;;;;;;5015211;28;20064;-69
2023/10/13 01:15:11;;;;;;;73.60;39.15;;;19.80;80.30;;;;;;5015226;28;20026;-69
2023/10/13 01:17:40;;;;;;;69.07;37.03;;;19.80;80.50;;;;;;5015350;28;20038;-69
2023/10/13 01:20:07;;;;;;;70.15;36.38;;;19.70;80.60;;;;;;5015041;28;20026;-69
2023/10/13 01:22:35;;;;;;;69.15;38.95;;;19.70;80.70;;;;;;5015081;28;20038;-68
2023/10/13 01:25:07;;;;;;;72.93;37.13;;;19.60;81.00;;;;;;5014994;28;20422;-69
2023/10/13 01:27:40;;;;;;;69.55;37.08;;;19.60;81.00;;;;;;5015827;28;20116;-69
2023/10/13 01:30:09;;;;;;;70.93;38.60;;;19.60;80.90;;;;;;5015385;28;20073;-68
2023/10/13 01:32:45;;;;;;;72.30;38.00;;;19.60;81.00;;;;;;5014796;28;20041;-68
2023/10/13 01:35:11;;;;;;;69.70;37.45;;;19.60;81.10;;;;;;5029496;28;20032;-69
2023/10/13 01:37:44;;;;;;;71.57;38.17;;;19.60;81.10;;;;;;5076458;28;20024;-69
2023/10/13 01:40:12;;;;;;;79.18;39.25;;;19.60;81.00;;;;;;5075920;28;20460;-69
2023/10/13 01:42:39;;;;;;;71.13;37.42;;;19.50;81.10;;;;;;5076051;28;20036;-69
2023/10/13 01:45:05;;;;;;;70.47;38.22;;;19.60;81.20;;;;;;5075870;28;20044;-68
2023/10/13 01:47:35;;;;;;;69.32;37.42;;;19.50;81.20;;;;;;5075999;28;20063;-69
2023/10/13 01:50:14;;;;;;;72.70;39.05;;;19.50;81.20;;;;;;5075826;28;20025;-69
2023/10/13 01:52:41;;;;;;;72.32;38.38;;;19.50;81.30;;;;;;5076111;28;20068;-69
2023/10/13 01:55:14;;;;;;;73.75;39.85;;;19.60;81.40;;;;;;5076132;28;20075;-69
2023/10/13 01:57:47;;;;;;;75.47;39.67;;;19.50;81.30;;;;;;5075732;28;20453;-68
2023/10/13 02:00:19;;;;;;;76.68;38.53;;;19.50;81.30;;;;;;5075710;28;20030;-69
2023/10/13 02:02:49;;;;;;;71.00;38.72;;;19.50;81.40;;;;;;5076337;28;20358;-69
2023/10/13 02:05:17;;;;;;;69.28;38.08;;;19.60;81.40;;;;;;5075622;28;20040;-69
2023/10/13 02:07:45;;;;;;;72.47;39.55;;;19.60;81.40;;;;;;5075977;28;20073;-69
2023/10/13 02:10:13;;;;;;;76.65;39.78;;;19.60;81.40;;;;;;5075843;28;20043;-69
2023/10/13 02:12:42;;;;;;;68.38;38.03;;;19.50;81.40;;;;;;5075594;28;20064;-69
2023/10/13 02:15:13;;;;;;;73.72;39.45;;;19.60;81.40;;;;;;5075593;28;20074;-69
2023/10/13 02:17:42;;;;;;;74.32;39.97;;;19.60;81.40;;;;;;5075735;28;20052;-69
2023/10/13 02:20:14;;;;;;;63.92;36.95;;;19.60;81.50;;;;;;5075639;28;20025;-69
2023/10/13 02:22:49;;;;;;;71.63;38.67;;;19.60;81.50;;;;;;5075934;28;20060;-69
2023/10/13 02:25:35;;;;;;;68.75;37.78;;;19.60;81.40;;;;;;5075782;28;20325;-69
2023/10/13 02:28:13;;;;;;;67.03;37.83;;;19.70;81.30;;;;;;5075419;28;20108;-69
2023/10/13 02:30:44;;;;;;;69.63;38.42;;;19.70;81.30;;;;;;5075332;28;20071;-69
2023/10/13 02:33:20;;;;;;;70.65;39.00;;;19.70;81.30;;;;;;5075539;28;20082;-69
2023/10/13 02:35:55;;;;;;;78.05;38.65;;;19.70;81.30;;;;;;5075364;28;20446;-69
2023/10/13 02:41:25;;;;;;;66.50;37.42;;;19.60;81.20;;;;;;5076216;28;20028;-69
2023/10/13 02:43:58;;;;;;;75.00;38.17;;;19.60;81.20;;;;;;5075858;28;20024;-69
2023/10/13 02:46:29;;;;;;;69.57;36.83;;;19.60;81.30;;;;;;5075214;28;20044;-69
2023/10/13 02:48:57;;;;;;;70.47;38.67;;;19.60;81.50;;;;;;5075949;28;20048;-69
2023/10/13 02:51:35;;;;;;;69.35;35.97;;;19.60;81.40;;;;;;5075142;28;20016;-69
2023/10/13 02:54:11;;;;;;;70.10;39.03;;;19.60;81.20;;;;;;5075451;28;20037;-69
2023/10/13 02:57:16;;;;;;;81.22;41.22;;;19.50;81.40;;;;;;5075435;28;20043;-69
2023/10/13 02:59:38;;;;;;;71.22;38.17;;;19.50;81.40;;;;;;5071944;28;20523;-69
2023/10/13 03:02:17;;;;;;;78.55;40.72;;;19.50;81.50;;;;;;5075008;28;20395;-69
2023/10/13 03:04:59;;;;;;;86.78;43.75;;;19.50;81.60;;;;;;5075036;28;20029;-69
2023/10/13 03:07:29;;;;;;;86.32;42.40;;;19.50;81.80;;;;;;5075326;28;20029;-69
2023/10/13 03:10:09;;;;;;;83.07;44.30;;;19.50;81.30;;;;;;5075258;28;20142;-69
2023/10/13 03:12:36;;;;;;;71.55;38.03;;;19.50;81.30;;;;;;5075219;28;20033;-69
2023/10/13 03:15:17;;;;;;;73.10;40.38;;;19.40;81.40;;;;;;5074967;28;20103;-69
2023/10/13 03:17:44;;;;;;;71.13;36.67;;;19.40;81.40;;;;;;5075227;28;20024;-69
2023/10/13 03:20:22;;;;;;;73.57;39.72;;;19.40;81.40;;;;;;5074763;28;20028;-69
2023/10/13 03:22:54;;;;;;;77.25;38.53;;;19.40;81.50;;;;;;5075183;28;20036;-69
2023/10/13 03:25:29;;;;;;;81.20;42.55;;;19.40;81.60;;;;;;5075413;28;20028;-69
2023/10/13 03:30:35;;;;;;;71.57;40.03;;;19.40;81.90;;;;;;5074754;28;20029;-69
2023/10/13 03:33:11;;;;;;;76.82;39.78;;;19.40;82.00;;;;;;5075033;28;20029;-69
2023/10/13 03:35:39;;;;;;;72.55;38.38;;;19.40;81.90;;;;;;5078535;28;20086;-69
2023/10/13 03:38:17;;;;;;;77.28;40.65;;;19.40;82.00;;;;;;5078451;28;20122;-68
2023/10/13 03:41:30;;;;;;;76.18;38.45;;;19.40;82.00;;;;;;5078640;28;20025;-69
2023/10/13 03:43:30;;;;;;;74.53;38.47;;;19.40;81.90;;;;;;5067473;28;20143;-69
2023/10/13 03:46:01;;;;;;;77.78;39.55;;;19.40;82.00;;;;;;5078186;28;20068;-69
2023/10/13 03:51:06;;;;;;;80.35;41.08;;;19.40;82.00;;;;;;5078176;28;20416;-68
2023/10/13 03:53:36;;;;;;;76.05;40.40;;;19.40;81.90;;;;;;5078455;28;20036;-68
2023/10/13 03:56:26;;;;;;;73.68;38.63;;;19.50;82.00;;;;;;5078183;28;20012;-69
2023/10/13 03:59:35;;;;;;;68.15;37.25;;;19.50;81.90;;;;;;5078317;28;20081;-68
2023/10/13 04:04:34;;;;;;;69.60;38.55;;;19.60;81.90;;;;;;5078283;28;20433;-68
2023/10/13 04:16:02;;;;;;;83.07;40.40;;;19.50;81.80;;;;;;5061228;28;20036;-69
2023/10/13 04:17:45;;;;;;;73.38;36.42;;;19.60;82.00;;;;;;5064282;28;20461;-69
2023/10/13 04:25:35;;;;;;;75.43;39.03;;;19.80;81.50;;;;;;5077711;28;20043;-68
2023/10/13 04:33:43;;;;;;;68.10;37.22;;;19.70;81.50;;;;;;5039205;28;20040;-69
2023/10/13 04:39:00;;;;;;;72.80;37.97;;;19.50;81.50;;;;;;5078147;28;20032;-69
2023/10/13 05:03:03;;;;;;;92.88;47.05;;;19.30;81.90;;;;;;5015476;28;20021;-69
2023/10/13 05:05:45;;;;;;;82.65;43.58;;;19.40;82.00;;;;;;5015442;28;20030;-69
2023/10/13 05:49:52;;;;;;;80.28;38.78;;;19.20;82.50;;;;;;5075922;28;20082;-69
2023/10/13 06:31:01;;;;;;;79.88;39.35;;;19.20;83.20;;;;;;5075602;28;20078;-68
2023/10/13 06:33:32;;;;;;;83.35;39.50;;;19.20;83.30;;;;;;5075509;28;20028;-69
2023/10/13 06:36:03;;;;;;;81.60;40.92;;;19.30;83.60;;;;;;5075285;28;20029;-69
2023/10/13 06:38:36;;;;;;;83.22;39.42;;;19.30;83.80;;;;;;5075553;28;20020;-69
2023/10/13 06:41:07;;;;;;;75.00;36.88;;;19.30;83.70;;;;;;5075205;28;20437;-69
2023/10/13 06:43:39;;;;;;;78.38;39.60;;;19.30;83.60;;;;;;5075779;28;20021;-69
2023/10/13 06:46:14;;;;;;;72.72;36.55;;;19.30;83.80;;;;;;5075133;28;20049;-69
2023/10/13 06:48:43;;;;;;;70.30;36.17;;;19.30;83.70;;;;;;5058619;28;20038;-69
2023/10/13 06:51:21;;;;;;;66.95;35.22;;;19.40;83.70;;;;;;5075088;28;20024;-68
2023/10/13 06:53:48;;;;;;;82.97;40.60;;;19.40;83.70;;;;;;5075007;28;20111;-69
2023/10/13 06:56:29;;;;;;;66.55;32.15;;;19.40;83.80;;;;;;5075052;28;20032;-69
2023/10/13 06:59:10;;;;;;;67.22;34.03;;;19.40;83.30;;;;;;5075581;28;20021;-68
2023/10/13 07:01:39;;;;;;;78.35;39.15;;;19.50;83.50;;;;;;5075651;28;20052;-69
2023/10/13 07:04:15;;;;;;;71.82;35.75;;;19.50;83.70;;;;;;5074948;28;20024;-69
2023/10/13 07:06:48;;;;;;;84.35;40.45;;;19.50;83.60;;;;;;5074857;28;20060;-69
2023/10/13 07:14:51;;;;;;;68.38;34.63;;;19.60;83.50;;;;;;5079224;28;20034;-69
2023/10/13 07:17:24;;;;;;;67.78;34.95;;;19.60;83.30;;;;;;5061246;28;20445;-69
2023/10/13 07:19:55;;;;;;;58.08;29.98;;;19.60;83.30;;;;;;5078955;28;20024;-69
2023/10/13 07:22:23;;;;;;;61.10;30.13;;;19.80;83.10;;;;;;5079296;28;20035;-69
2023/10/13 07:24:50;;;;;;;58.13;30.30;;;19.80;83.00;;;;;;5078965;28;20025;-69
2023/10/13 07:27:25;;;;;;;55.42;28.83;;;19.90;82.80;;;;;;5079203;28;20040;-68
2023/10/13 07:30:19;;;;;;;60.53;30.48;;;19.90;82.70;;;;;;5078680;28;20020;-69
2023/10/13 07:32:45;;;;;;;60.95;30.95;;;19.90;82.50;;;;;;5078016;28;20036;-69
2023/10/13 07:35:17;;;;;;;68.45;34.20;;;19.90;82.30;;;;;;5078457;28;20031;-68
2023/10/13 07:37:59;;;;;;;59.88;31.77;;;20.00;82.20;;;;;;5078434;28;20074;-69
2023/10/13 07:42:51;;;;;;;62.63;32.92;;;20.00;81.90;;;;;;5079227;28;20115;-69
2023/10/13 07:45:21;;;;;;;61.22;31.70;;;20.10;81.90;;;;;;5078518;28;20480;-69
2023/10/13 07:47:49;;;;;;;61.40;33.20;;;20.10;81.90;;;;;;5078241;28;20454;-68
2023/10/13 07:50:25;;;;;;;66.97;33.80;;;20.20;81.90;;;;;;5078097;28;20055;-69
2023/10/13 07:52:58;;;;;;;57.33;32.33;;;20.20;81.80;;;;;;5078413;28;20039;-69
2023/10/13 07:55:26;;;;;;;66.75;34.53;;;20.20;81.80;;;;;;5078420;28;20082;-68
2023/10/13 07:57:56;;;;;;;65.00;35.75;;;20.30;81.60;;;;;;5078070;28;20021;-69
2023/10/13 08:01:26;;;;;;;69.78;34.33;;;20.40;81.60;;;;;;5078210;28;20111;-69
2023/10/13 08:06:06;;;;;;;59.70;32.05;;;20.40;81.60;;;;;;5077961;28;20464;-69
2023/10/13 08:08:39;;;;;;;60.67;31.02;;;20.40;81.60;;;;;;5077885;28;20114;-69
2023/10/13 08:14:11;;;;;;;64.22;33.03;;;20.50;81.20;;;;;;5014011;28;20107;-69
2023/10/13 08:16:45;;;;;;;64.85;32.83;;;20.50;81.30;;;;;;5014075;28;20026;-69
2023/10/13 08:19:15;;;;;;;67.38;33.40;;;20.60;81.30;;;;;;4998503;28;20112;-69
2023/10/13 08:21:52;;;;;;;73.70;36.67;;;20.60;81.00;;;;;;5014632;28;20049;-69
2023/10/13 08:35:22;;;;;;;58.75;31.80;;;20.70;80.70;;;;;;5016064;28;20169;-68
2023/10/13 08:37:29;;;;;;;62.35;32.88;;;20.70;80.50;;;;;;5008243;28;20030;-69
2023/10/13 08:43:14;;;;;;;70.28;34.85;;;20.80;80.70;;;;;;5015869;28;20113;-69
2023/10/13 09:09:40;;;;;;;56.78;29.02;;;21.40;79.30;;;;;;5057330;28;20433;-69
2023/10/13 09:12:14;;;;;;;57.58;29.90;;;21.40;79.10;;;;;;5056951;28;20100;-69
2023/10/13 09:14:56;;;;;;;61.55;33.85;;;21.50;78.80;;;;;;5055704;28;20029;-69
2023/10/13 09:25:37;;;;;;;72.28;35.60;;;21.50;78.10;;;;;;5056540;28;20328;-69
2023/10/13 09:28:21;;;;;;;61.15;31.30;;;21.60;78.10;;;;;;5056324;28;20419;-69
2023/10/13 09:30:53;;;;;;;64.88;32.70;;;21.60;78.10;;;;;;5055573;28;20036;-69
2023/10/13 09:33:32;;;;;;;61.65;33.33;;;21.60;78.20;;;;;;5056775;28;20059;-69
2023/10/13 09:35:59;;;;;;;57.05;31.73;;;21.70;78.10;;;;;;5056606;28;20025;-69
2023/10/13 09:38:29;;;;;;;61.15;32.22;;;21.70;78.10;;;;;;5055263;28;20017;-69
2023/10/13 09:40:57;;;;;;;60.28;31.10;;;21.70;77.90;;;;;;5056030;28;20031;-69
2023/10/13 09:43:30;;;;;;;58.75;29.88;;;21.80;78.00;;;;;;5056085;28;20032;-69
2023/10/13 09:46:17;;;;;;;60.13;32.27;;;21.80;77.90;;;;;;5067233;28;20430;-69
2023/10/13 09:48:49;;;;;;;67.93;34.05;;;21.90;77.60;;;;;;5076661;28;20263;-69
2023/10/13 09:51:27;;;;;;;60.13;30.40;;;21.90;77.30;;;;;;5075895;28;20504;-69
2023/10/13 09:54:06;;;;;;;60.22;31.10;;;22.00;77.40;;;;;;5076130;28;20024;-69
2023/10/13 09:56:51;;;;;;;66.47;33.90;;;22.00;77.20;;;;;;5076134;28;20020;-69
2023/10/13 09:59:40;;;;;;;72.93;35.63;;;22.10;76.90;;;;;;5076002;28;20049;-69
2023/10/13 10:02:09;;;;;;;69.15;34.03;;;22.00;76.70;;;;;;5076015;28;20051;-69
2023/10/13 10:04:50;;;;;;;59.83;29.80;;;22.00;76.90;;;;;;5058061;28;20020;-69
2023/10/13 10:07:28;;;;;;;62.65;31.38;;;22.00;77.00;;;;;;5075661;28;20449;-69
2023/10/13 10:10:03;;;;;;;55.08;29.80;;;22.10;77.00;;;;;;5058338;28;20034;-69
2023/10/13 10:12:57;;;;;;;54.67;28.98;;;22.10;77.10;;;;;;5075779;28;20028;-69
2023/10/13 10:15:43;;;;;;;;;;;22.20;77.10;;;;;;5075998;28;20092;-69
2023/10/13 10:18:27;;;;;;;62.35;33.35;;;22.30;76.80;;;;;;5075556;28;19936;-69
2023/10/13 10:21:09;;;;;;;53.85;29.20;;;22.40;76.40;;;;;;5076032;28;20027;-69
2023/10/13 10:23:36;;;;;;;68.00;35.10;;;22.40;76.50;;;;;;5075784;28;20039;-69
2023/10/13 10:26:24;;;;;;;68.43;34.42;;;22.50;75.70;;;;;;5075397;28;20467;-69
2023/10/13 10:28:50;;;;;;;69.03;35.75;;;22.50;75.40;;;;;;5075668;28;20033;-69
2023/10/13 10:31:21;;;;;;;59.05;31.08;;;22.50;75.30;;;;;;5058218;28;20461;-69
2023/10/13 10:33:50;;;;;;;52.67;28.90;;;22.50;75.80;;;;;;5075310;28;20331;-69
2023/10/13 10:36:28;;;;;;;54.05;29.35;;;22.50;75.90;;;;;;5075286;28;20035;-69
2023/10/13 10:38:58;;;;;;;55.88;29.90;;;22.60;75.90;;;;;;5059868;28;20028;-69
2023/10/13 10:42:15;;;;;;;63.03;31.65;;;22.70;75.90;;;;;;5058623;28;20103;-68
2023/10/13 10:44:26;;;;;;;59.03;29.20;;;22.70;75.80;;;;;;5046779;28;20195;-69
2023/10/13 10:47:11;;;;;;;74.10;33.78;;;22.80;75.50;;;;;;5075561;28;20044;-69
2023/10/13 10:49:38;;;;;;;62.58;31.75;;;22.90;74.60;;;;;;5075292;28;20059;-69
2023/10/13 10:52:14;;;;;;;66.00;33.13;;;22.90;74.70;;;;;;5075433;28;20354;-69
2023/10/13 10:54:43;;;;;;;73.90;37.92;;;22.90;74.60;;;;;;5075465;28;20051;-69
2023/10/13 10:57:17;;;;;;;69.10;35.15;;;22.90;74.50;;;;;;5075624;28;20094;-69
2023/10/13 11:00:11;;;;;;;69.32;35.70;;;22.90;74.30;;;;;;5073749;28;20078;-69
2023/10/13 11:02:40;;;;;;;58.78;31.52;;;22.90;73.90;;;;;;5075716;28;20032;-69
2023/10/13 11:05:09;;;;;;;71.07;36.03;;;22.90;74.30;;;;;;5075674;28;20104;-69
2023/10/13 11:07:35;;;;;;;58.50;30.58;;;22.90;74.00;;;;;;5058218;28;20116;-69
2023/10/13 11:10:26;;;;;;;68.93;36.20;;;22.90;74.10;;;;;;5074960;28;20076;-69
2023/10/13 11:12:55;;;;;;;70.07;34.40;;;22.90;73.70;;;;;;5074846;28;20124;-69
2023/10/13 11:15:33;;;;;;;69.30;35.08;;;23.00;73.90;;;;;;5074994;28;20027;-69
2023/10/13 11:18:00;;;;;;;66.28;35.15;;;23.00;73.90;;;;;;5074929;28;20044;-69
2023/10/13 11:20:44;;;;;;;67.78;35.63;;;23.00;73.80;;;;;;5075401;28;20068;-69
2023/10/13 11:23:23;;;;;;;62.63;32.72;;;23.00;73.50;;;;;;5056514;28;20378;-69
2023/10/13 11:25:58;;;;;;;70.75;36.92;;;23.10;74.00;;;;;;5075211;28;20103;-69
2023/10/13 11:28:31;;;;;;;72.38;38.03;;;23.10;73.00;;;;;;5057170;28;20050;-69
2023/10/13 11:30:59;;;;;;;67.03;34.78;;;23.20;72.80;;;;;;5057162;28;20025;-70
2023/10/13 11:33:29;;;;;;;66.90;35.85;;;23.10;73.00;;;;;;5074742;28;20043;-70
2023/10/13 11:35:56;;;;;;;67.68;37.35;;;23.20;73.10;;;;;;5040964;28;20029;-69
2023/10/13 11:48:46;;;;;;;55.83;31.15;;;23.50;72.60;;;;;;5055278;28;20041;-66
2023/10/13 11:53:40;;;;;;;63.42;32.60;;;23.80;72.20;;;;;;5055079;28;20072;-66
2023/10/13 11:56:09;;;;;;;58.15;31.50;;;23.90;71.80;;;;;;5056992;28;20059;-66
2023/10/13 11:58:39;;;;;;;60.35;32.85;;;24.00;71.60;;;;;;5058064;28;20048;-67
2023/10/13 12:11:50;;;;;;;60.85;33.65;;;24.40;69.90;;;;;;5057871;28;20029;-67
2023/10/13 12:14:20;;;;;;;61.67;34.93;;;24.40;69.90;;;;;;5057014;28;20025;-68
2023/10/13 12:16:51;;;;;;;69.78;37.72;;;24.40;69.40;;;;;;5058149;28;20044;-68
2023/10/13 12:19:24;;;;;;;66.03;36.60;;;24.40;69.20;;;;;;5057654;28;20033;-68
2023/10/13 12:21:55;;;;;;;67.22;37.05;;;24.30;69.10;;;;;;5056828;28;20458;-68
2023/10/13 12:27:20;;;;;;;65.05;36.20;;;24.10;69.50;;;;;;5057716;28;20024;-68
2023/10/13 12:29:52;;;;;;;70.38;38.15;;;24.10;69.40;;;;;;5057486;28;20035;-68
2023/10/13 12:32:25;;;;;;;66.25;36.97;;;24.10;68.50;;;;;;5057513;28;20025;-68
2023/10/13 12:51:50;;;;;;;64.20;35.33;;;23.90;69.80;;;;;;5077232;28;20126;-68
2023/10/13 12:54:17;;;;;;;60.10;32.28;;;24.00;69.70;;;;;;5076684;28;20036;-68
2023/10/13 12:56:46;;;;;;;64.53;35.33;;;24.00;69.60;;;;;;5077415;28;20403;-68
2023/10/13 12:59:17;;;;;;;64.93;33.67;;;24.00;69.30;;;;;;5077250;28;20381;-69
2023/10/13 13:01:43;;;;;;;64.90;35.13;;;23.90;69.40;;;;;;5076852;28;20091;-68
2023/10/13 13:04:18;;;;;;;64.15;34.63;;;23.90;69.20;;;;;;5059299;28;20103;-68
2023/10/13 13:06:44;;;;;;;60.47;35.17;;;23.80;69.20;;;;;;5076639;28;20028;-69
2023/10/13 13:09:13;;;;;;;67.15;35.63;;;23.70;69.10;;;;;;5059351;28;20035;-69
2023/10/13 13:11:42;;;;;;;58.20;32.13;;;23.70;69.50;;;;;;5076787;28;20048;-69
2023/10/13 13:14:09;;;;;;;59.70;33.78;;;23.70;69.50;;;;;;5076607;28;20020;-69
2023/10/13 13:16:38;;;;;;;61.35;33.10;;;23.70;69.30;;;;;;5077144;28;20043;-69
2023/10/13 13:19:14;;;;;;;61.58;33.70;;;23.60;69.40;;;;;;5058967;28;20108;-69
2023/10/13 13:21:41;;;;;;;62.08;34.97;;;23.70;69.20;;;;;;5058996;28;20033;-69
2023/10/13 13:24:14;;;;;;;66.32;34.67;;;23.60;69.10;;;;;;5076446;28;20331;-69
2023/10/13 13:26:40;;;;;;;50.60;28.90;;;23.50;69.00;;;;;;5076844;28;20024;-67
2023/10/13 13:29:11;;;;;;;65.60;33.03;;;23.50;69.30;;;;;;5076783;28;20028;-67
2023/10/13 13:31:50;;;;;;;68.13;34.60;;;23.60;69.00;;;;;;5058679;28;20446;-67
2023/10/13 13:34:21;;;;;;;59.97;31.27;;;23.50;68.80;;;;;;5076906;28;20102;-67
2023/10/13 13:36:52;;;;;;;58.67;31.80;;;23.60;69.10;;;;;;5076235;28;20074;-67
2023/10/13 13:39:29;;;;;;;52.33;28.20;;;23.60;69.20;;;;;;5076093;28;20029;-67
2023/10/13 13:42:02;;;;;;;57.22;31.48;;;23.60;69.30;;;;;;5076107;28;20449;-68
2023/10/13 13:44:36;;;;;;;64.70;35.22;;;23.70;69.20;;;;;;5076076;28;20517;-67
2023/10/13 13:47:35;;;;;;;54.72;28.63;;;23.60;68.70;;;;;;5076250;28;20101;-67
2023/10/13 13:49:56;;;;;;;53.92;29.77;;;23.60;69.00;;;;;;5070516;28;20120;-68
2023/10/13 13:52:33;;;;;;;54.30;30.17;;;23.70;69.00;;;;;;5075958;28;20157;-67
2023/10/13 13:55:02;;;;;;;52.03;28.50;;;23.80;69.00;;;;;;5076198;28;20036;-67
2023/10/13 13:57:30;;;;;;;61.45;32.85;;;23.90;68.70;;;;;;5075925;28;20025;-67
2023/10/13 13:59:57;;;;;;;51.63;27.05;;;23.90;68.70;;;;;;5075898;28;20440;-67
2023/10/13 14:02:23;;;;;;;60.63;33.78;;;23.90;68.60;;;;;;5075736;28;20094;-67
2023/10/13 14:04:57;;;;;;;65.55;32.97;;;23.90;67.90;;;;;;5075744;28;20029;-67
2023/10/13 14:07:24;;;;;;;55.47;30.30;;;23.90;68.00;;;;;;5057931;28;20039;-67
2023/10/13 14:09:52;;;;;;;56.75;31.55;;;24.00;68.00;;;;;;5075512;28;20052;-67
2023/10/13 14:12:29;;;;;;;66.90;37.08;;;24.00;67.70;;;;;;5075527;28;20082;-68
2023/10/13 14:14:56;;;;;;;57.25;30.95;;;24.00;66.10;;;;;;5075527;28;20399;-67
2023/10/13 14:17:28;;;;;;;54.17;30.67;;;24.10;66.90;;;;;;5074920;28;20455;-68
2023/10/13 14:19:58;;;;;;;58.67;32.63;;;24.10;66.90;;;;;;5057903;28;20024;-68
2023/10/13 14:22:25;;;;;;;48.25;28.42;;;24.20;66.80;;;;;;5075511;28;20115;-68
2023/10/13 14:24:55;;;;;;;48.58;27.33;;;24.20;66.80;;;;;;5075738;28;20036;-68
2023/10/13 14:27:23;;;;;;;48.47;29.08;;;24.30;66.90;;;;;;5075441;28;20484;-68
2023/10/13 14:29:56;;;;;;;60.13;34.40;;;24.40;66.40;;;;;;5075261;28;20028;-68
2023/10/13 14:32:25;;;;;;;58.45;33.25;;;24.40;65.20;;;;;;5075319;28;20040;-68
2023/10/13 14:34:54;;;;;;;55.67;30.77;;;24.40;65.00;;;;;;5075918;28;20481;-68
2023/10/13 14:37:26;;;;;;;60.63;33.10;;;24.40;65.50;;;;;;5075273;28;20025;-68
2023/10/13 14:39:56;;;;;;;54.05;29.00;;;24.30;64.70;;;;;;5075220;28;20044;-68
2023/10/13 14:42:26;;;;;;;50.53;29.33;;;24.30;65.60;;;;;;5075303;28;20024;-68
2023/10/13 14:44:55;;;;;;;50.22;28.17;;;24.20;66.00;;;;;;5075098;28;20060;-68
2023/10/13 14:47:30;;;;;;;55.70;31.42;;;24.10;65.90;;;;;;5075607;28;20032;-67
2023/10/13 14:50:03;;;;;;;52.13;28.95;;;24.00;65.90;;;;;;5075623;28;20484;-67
2023/10/13 14:52:33;;;;;;;53.03;27.77;;;24.00;66.10;;;;;;5075102;28;20036;-67
2023/10/13 14:54:59;;;;;;;39.28;24.48;;;23.90;66.40;;;;;;5075790;28;20054;-67
2023/10/13 14:57:26;;;;;;;48.17;26.45;;;23.90;66.60;;;;;;5075199;28;20025;-67
2023/10/13 14:59:56;;;;;;;53.78;30.20;;;23.90;66.80;;;;;;5075408;28;20032;-67
2023/10/13 15:02:22;;;;;;;48.45;27.23;;;23.90;66.70;;;;;;5075074;28;20032;-67
2023/10/13 15:04:49;;;;;;;45.00;25.73;;;23.80;66.60;;;;;;5075608;28;20055;-67
2023/10/13 15:07:17;;;;;;;45.17;25.42;;;23.80;66.90;;;;;;5057906;28;20029;-67
2023/10/13 15:09:47;;;;;;;47.05;26.15;;;23.80;67.00;;;;;;5074907;28;20025;-66
2023/10/13 15:12:15;;;;;;;42.05;23.02;;;23.80;66.90;;;;;;5074859;28;20036;-66
2023/10/13 15:14:44;;;;;;;46.10;24.88;;;23.80;67.00;;;;;;5075445;28;20016;-66
2023/10/13 15:17:10;;;;;;;40.90;23.60;;;23.80;67.10;;;;;;5057235;28;20367;-66
2023/10/13 15:19:38;;;;;;;38.85;23.67;;;23.80;67.30;;;;;;5057106;28;20147;-67
2023/10/13 15:22:12;;;;;;;43.95;23.52;;;23.80;67.40;;;;;;5075407;28;20024;-67
2023/10/13 15:24:44;;;;;;;43.15;24.05;;;23.80;67.20;;;;;;5056982;28;20024;-67
2023/10/13 15:27:11;;;;;;;47.20;26.00;;;23.90;67.20;;;;;;5075030;28;20052;-67
2023/10/13 15:29:37;;;;;;;43.80;24.27;;;23.80;67.30;;;;;;5077657;28;20032;-66
2023/10/13 15:32:41;;;;;;;42.95;25.00;;;23.90;67.40;;;;;;5078330;28;20044;-67
2023/10/13 15:34:53;;;;;;;38.45;22.85;;;23.90;67.10;;;;;;5078230;28;20338;-67
2023/10/13 15:37:20;;;;;;;40.75;24.27;;;23.90;67.00;;;;;;5061165;28;20035;-66
2023/10/13 15:39:46;;;;;;;41.13;23.58;;;23.90;66.80;;;;;;5060836;28;20025;-66
2023/10/13 15:42:14;;;;;;;45.40;24.20;;;23.90;66.90;;;;;;5078495;28;20397;-67
2023/10/13 15:44:43;;;;;;;43.40;26.00;;;23.90;66.80;;;;;;5060623;28;20024;-67
2023/10/13 15:47:12;;;;;;;51.80;27.20;;;23.90;66.90;;;;;;5078683;28;20107;-67
2023/10/13 15:49:42;;;;;;;40.25;23.70;;;23.90;67.00;;;;;;5078289;28;20020;-66
2023/10/13 15:52:09;;;;;;;43.05;24.45;;;23.90;66.90;;;;;;5078450;28;20056;-66
2023/10/13 15:54:40;;;;;;;44.25;24.85;;;23.90;66.90;;;;;;5078491;28;20075;-66
2023/10/13 15:57:16;;;;;;;38.50;23.40;;;23.90;66.90;;;;;;5078118;28;20035;-66
2023/10/13 15:59:46;;;;;;;38.13;22.42;;;23.90;66.80;;;;;;5078047;28;20029;-66
2023/10/13 16:02:12;;;;;;;47.13;27.20;;;23.90;67.00;;;;;;5078069;28;20171;-66
2023/10/13 16:04:40;;;;;;;39.05;23.92;;;23.80;66.90;;;;;;5078366;28;20107;-66
2023/10/13 16:07:09;;;;;;;40.78;22.58;;;23.80;66.90;;;;;;5078571;28;20095;-66
2023/10/13 16:09:38;;;;;;;45.10;24.85;;;23.70;67.20;;;;;;5077651;28;20028;-66
2023/10/13 16:14:35;;;;;;;37.13;22.02;;;23.60;67.60;;;;;;5078420;28;20024;-66
2023/10/13 16:17:01;;;;;;;45.95;23.67;;;23.60;67.70;;;;;;5077855;28;20461;-66
2023/10/13 16:19:30;;;;;;;42.22;24.42;;;23.50;67.90;;;;;;5077793;28;20020;-66
2023/10/13 16:21:59;;;;;;;43.75;24.98;;;23.50;68.00;;;;;;5078256;28;20039;-66
2023/10/13 16:24:27;;;;;;;44.85;25.33;;;23.40;68.10;;;;;;5078251;28;20361;-66
2023/10/13 16:26:56;;;;;;;53.80;26.38;;;23.40;68.20;;;;;;5077690;28;20074;-66
2023/10/13 16:29:24;;;;;;;43.90;25.88;;;23.30;68.30;;;;;;5077488;28;20031;-66
2023/10/13 16:31:53;;;;;;;48.67;26.27;;;23.30;68.40;;;;;;5077264;28;20070;-66
2023/10/13 16:34:20;;;;;;;46.75;26.23;;;23.30;68.50;;;;;;5077422;28;20020;-66
2023/10/13 16:36:55;;;;;;;47.17;29.23;;;23.30;68.60;;;;;;5059845;28;20380;-66
2023/10/13 16:39:28;;;;;;;50.28;27.35;;;23.20;68.70;;;;;;5042668;28;20036;-67
2023/10/13 16:41:56;;;;;;;46.00;26.10;;;23.10;68.80;;;;;;5076859;28;20115;-66
2023/10/13 16:44:28;;;;;;;41.65;24.88;;;23.10;68.80;;;;;;5077352;28;20031;-66
2023/10/13 16:47:00;;;;;;;44.10;26.42;;;23.00;68.90;;;;;;5076692;28;20048;-66
2023/10/13 16:49:26;;;;;;;40.58;24.33;;;22.90;69.00;;;;;;5077121;28;20345;-66
2023/10/13 16:51:56;;;;;;;45.35;26.48;;;22.90;69.20;;;;;;5077564;28;20428;-66
2023/10/13 16:54:25;;;;;;;50.47;27.98;;;22.90;69.30;;;;;;5077216;28;20426;-66
2023/10/13 16:57:01;;;;;;;52.65;27.38;;;22.90;69.40;;;;;;5077161;28;20315;-66
2023/10/13 16:59:27;;;;;;;52.72;29.63;;;22.90;69.50;;;;;;5077068;28;20030;-66
2023/10/13 17:01:53;;;;;;;47.03;26.17;;;22.70;69.70;;;;;;5077559;28;20104;-66